Time;durP1;ratioP1;P1;durP2;ratioP2;P2;SDS_P1;SDS_P2;PMS_P1;PMS_P2;Temp;Humidity;BMP_temperature;BMP_pressure;BME280_temperature;BME280_humidity;BME280_pressure;Samples;Min_cycle;Max_cycle;Signal;HPM_P1;HPM_P2
2022/02/15 00:02:28;;;;;;;59.80;28.30;;;;;;;-3.10;77.90;97938.42;1718958;83;21074;-80
2022/02/15 00:04:55;;;;;;;64.55;28.02;;;;;;;-3.12;76.44;97931.04;1719079;83;21000;-79
2022/02/15 00:07:21;;;;;;;66.28;30.30;;;;;;;-3.15;75.97;97933.14;1719381;83;21066;-81
2022/02/15 00:09:50;;;;;;;66.47;29.57;;;;;;;-3.10;76.05;97937.13;1719352;83;21087;-81
2022/02/15 00:12:18;;;;;;;64.47;29.72;;;;;;;-3.08;75.73;97929.84;1720046;82;21118;-80
2022/02/15 00:14:46;;;;;;;62.55;29.42;;;;;;;-3.09;75.89;97924.20;1719542;83;21032;-80
2022/02/15 00:17:12;;;;;;;63.68;29.12;;;;;;;-3.08;75.95;97918.17;1718800;83;21500;-80
2022/02/15 00:19:39;;;;;;;62.20;28.65;;;;;;;-3.09;75.71;97921.61;1718122;83;21048;-80
2022/02/15 00:22:06;;;;;;;59.58;29.00;;;;;;;-3.14;76.21;97918.44;1717959;83;21107;-80
2022/02/15 00:24:32;;;;;;;65.10;28.80;;;;;;;-3.16;75.58;97916.25;1717792;83;21028;-80
2022/02/15 00:26:59;;;;;;;59.20;28.92;;;;;;;-3.21;75.69;97914.82;1717775;83;21071;-80
2022/02/15 00:29:25;;;;;;;70.83;30.95;;;;;;;-3.20;75.77;97905.80;1719127;83;20976;-80
2022/02/15 00:31:52;;;;;;;60.35;29.20;;;;;;;-3.19;76.08;97911.86;1720098;83;21607;-80
2022/02/15 00:34:18;;;;;;;56.25;27.27;;;;;;;-3.18;75.68;97908.42;1721149;83;21418;-80
2022/02/15 00:36:46;;;;;;;60.92;27.75;;;;;;;-3.21;75.99;97912.23;1720321;83;21039;-80
2022/02/15 00:39:13;;;;;;;61.02;26.80;;;;;;;-3.20;75.99;97913.57;1719356;83;21059;-80
2022/02/15 00:41:39;;;;;;;60.38;27.67;;;;;;;-3.14;75.94;97906.77;1719435;83;20968;-81
2022/02/15 00:44:06;;;;;;;56.98;27.20;;;;;;;-3.15;76.06;97899.44;1719498;83;21035;-82
2022/02/15 00:46:33;;;;;;;59.95;28.60;;;;;;;-3.15;76.06;97903.73;1719342;83;21007;-82
2022/02/15 00:49:00;;;;;;;62.25;28.30;;;;;;;-3.18;77.57;97901.95;1719578;83;21423;-82
2022/02/15 00:51:27;;;;;;;60.55;27.22;;;;;;;-3.21;76.50;97888.49;1719458;83;21027;-81
2022/02/15 00:53:54;;;;;;;59.55;27.80;;;;;;;-3.22;76.28;97891.93;1719368;83;21079;-81
2022/02/15 00:56:21;;;;;;;58.45;27.32;;;;;;;-3.21;76.52;97887.61;1719787;83;21006;-81
2022/02/15 00:58:48;;;;;;;58.17;26.85;;;;;;;-3.22;76.33;97880.27;1720997;83;21012;-80
2022/02/15 01:01:14;;;;;;;57.23;27.93;;;;;;;-3.20;76.71;97870.80;1713894;83;21048;-81
2022/02/15 01:03:42;;;;;;;55.70;28.07;;;;;;;-3.22;77.10;97885.86;1708866;82;21072;-81
2022/02/15 01:06:12;;;;;;;50.03;26.02;;;;;;;-3.25;76.75;97885.77;1708788;83;20980;-81
2022/02/15 01:08:39;;;;;;;55.05;25.68;;;;;;;-3.35;78.48;97885.59;1706800;83;21035;-81
2022/02/15 01:11:08;;;;;;;61.35;27.70;;;;;;;-3.39;77.08;97872.50;1708120;83;21012;-81
2022/02/15 01:13:36;;;;;;;62.65;27.75;;;;;;;-3.41;77.13;97875.48;1707982;83;21036;-81
2022/02/15 01:16:06;;;;;;;54.00;26.75;;;;;;;-3.41;77.03;97872.89;1708395;84;21047;-80
2022/02/15 01:18:34;;;;;;;61.33;28.12;;;;;;;-3.43;76.70;97865.08;1708298;83;21469;-80
2022/02/15 01:21:01;;;;;;;64.67;29.05;;;;;;;-3.49;76.52;97864.94;1709680;84;20980;-80
2022/02/15 01:23:28;;;;;;;59.33;28.17;;;;;;;-3.53;76.69;97862.67;1709721;84;21067;-80
2022/02/15 01:25:54;;;;;;;65.60;29.72;;;;;;;-3.54;77.21;97858.33;1709425;83;21428;-78
2022/02/15 01:28:22;;;;;;;72.17;29.72;;;;;;;-3.56;77.75;97861.73;1681204;85;21013;-78
2022/02/15 01:30:49;;;;;;;65.80;29.35;;;;;;;-3.59;77.10;97856.05;1681296;85;21040;-79
2022/02/15 01:33:16;;;;;;;68.42;30.40;;;;;;;-3.60;77.59;97851.72;1681189;85;21017;-78
2022/02/15 01:35:42;;;;;;;60.98;28.70;;;;;;;-3.62;77.11;97849.48;1680992;85;21058;-78
2022/02/15 01:38:10;;;;;;;62.70;30.05;;;;;;;-3.63;77.59;97844.75;1707015;84;21024;-79
2022/02/15 01:40:37;;;;;;;62.65;27.48;;;;;;;-3.67;77.41;97836.84;1707986;83;21425;-78
2022/02/15 01:43:04;;;;;;;63.68;28.92;;;;;;;-3.66;77.20;97828.26;1684713;84;21073;-78
2022/02/15 01:45:30;;;;;;;63.00;28.92;;;;;;;-3.66;77.25;97833.44;1708228;83;20976;-80
2022/02/15 01:47:57;;;;;;;64.72;29.37;;;;;;;-3.70;77.22;97836.35;1708038;83;21439;-79
2022/02/15 01:50:24;;;;;;;65.35;29.57;;;;;;;-3.65;77.36;97840.37;1708154;83;21016;-79
2022/02/15 01:52:51;;;;;;;67.27;29.50;;;;;;;-3.65;77.01;97833.45;1708432;83;21012;-79
2022/02/15 01:55:18;;;;;;;63.80;29.07;;;;;;;-3.65;77.19;97837.77;1708863;83;20980;-79
2022/02/15 01:57:45;;;;;;;57.73;27.95;;;;;;;-3.65;77.01;97840.37;1709581;83;21431;-77
2022/02/15 02:00:18;;;;;;;67.87;29.27;;;;;;;-3.67;77.37;97839.03;1709288;83;21072;-77
2022/02/15 02:02:47;;;;;;;60.90;30.23;;;;;;;-3.72;77.40;97835.45;1709563;83;21068;-78
2022/02/15 02:08:03;;;;;;;66.70;29.57;;;;;;;-3.64;77.74;97835.23;1708485;83;21011;-79
2022/02/15 02:10:31;;;;;;;60.43;29.23;;;;;;;-3.61;77.48;97837.02;1708222;83;20957;-79
2022/02/15 02:13:01;;;;;;;68.87;30.92;;;;;;;-3.56;77.76;97839.70;1708229;83;21056;-79
2022/02/15 02:15:28;;;;;;;58.78;29.05;;;;;;;-3.50;78.29;97844.62;1708282;83;20977;-80
2022/02/15 02:18:02;;;;;;;64.20;27.98;;;;;;;-3.48;77.48;97847.25;1698180;84;21454;-80
2022/02/15 02:20:30;;;;;;;58.05;26.85;;;;;;;-3.51;78.45;97845.88;1708275;83;21012;-80
2022/02/15 02:22:57;;;;;;;59.45;28.65;;;;;;;-3.52;77.71;97848.02;1708124;84;21106;-79
2022/02/15 02:25:24;;;;;;;61.58;27.73;;;;;;;-3.54;79.31;97852.30;1708807;84;20979;-79
2022/02/15 02:27:52;;;;;;;59.20;28.60;;;;;;;-3.58;78.53;97843.55;1709802;83;21098;-79
2022/02/15 02:30:19;;;;;;;68.37;29.75;;;;;;;-3.54;78.15;97847.11;1709633;83;21464;-80
2022/02/15 02:32:54;;;;;;;59.00;29.02;;;;;;;-3.55;77.95;97848.81;1709961;83;21064;-80
2022/02/15 02:35:24;;;;;;;69.72;31.82;;;;;;;-3.53;77.80;97854.04;1709256;84;21007;-79
2022/02/15 02:37:51;;;;;;;58.73;28.77;;;;;;;-3.52;77.93;97855.78;1708060;83;21564;-78
2022/02/15 02:40:18;;;;;;;65.60;29.07;;;;;;;-3.51;78.05;97845.46;1708323;83;20988;-79
2022/02/15 02:42:46;;;;;;;59.80;29.80;;;;;;;-3.48;77.62;97839.48;1707897;83;21040;-78
2022/02/15 02:45:17;;;;;;;66.92;30.77;;;;;;;-3.46;78.05;97854.63;1707950;84;21450;-79
2022/02/15 02:47:49;;;;;;;55.95;27.70;;;;;;;-3.42;77.75;97858.16;1709088;84;21493;-79
2022/02/15 02:50:18;;;;;;;63.17;29.52;;;;;;;-3.39;77.42;97853.95;1709401;83;21475;-79
2022/02/15 02:52:46;;;;;;;66.20;29.82;;;;;;;-3.38;77.53;97846.63;1709271;83;21067;-78
2022/02/15 02:55:14;;;;;;;72.92;29.90;;;;;;;-3.34;77.75;97847.56;1707921;83;21004;-78
2022/02/15 02:57:41;;;;;;;63.63;30.17;;;;;;;-3.31;78.27;97860.61;1707694;83;21450;-78
2022/02/15 03:00:15;;;;;;;64.60;28.75;;;;;;;-3.36;78.69;97860.92;1708015;83;20973;-78
2022/02/15 03:02:53;;;;;;;64.27;30.20;;;;;;;-3.38;79.35;97861.28;1707043;84;21438;-78
2022/02/15 03:05:20;;;;;;;60.80;28.38;;;;;;;-3.36;78.26;97855.73;1681226;85;20984;-78
2022/02/15 03:07:47;;;;;;;64.55;29.42;;;;;;;-3.38;78.58;97848.33;1681230;85;20976;-79
2022/02/15 03:10:14;;;;;;;61.40;30.72;;;;;;;-3.32;78.38;97845.47;1681146;85;21062;-79
2022/02/15 03:12:41;;;;;;;62.55;28.70;;;;;;;-3.21;78.46;97846.13;1688165;84;21410;-79
2022/02/15 03:15:09;;;;;;;65.08;29.82;;;;;;;-3.14;78.31;97841.55;1708105;83;20973;-79
2022/02/15 03:17:38;;;;;;;57.95;27.60;;;;;;;-3.06;78.12;97839.13;1707925;83;21080;-79
2022/02/15 03:20:06;;;;;;;59.35;27.17;;;;;;;-3.04;77.71;97834.84;1707895;83;21020;-79
2022/02/15 03:22:33;;;;;;;58.00;28.50;;;;;;;-2.97;77.72;97827.67;1708062;83;21016;-79
2022/02/15 03:25:00;;;;;;;58.73;27.93;;;;;;;-2.93;77.49;97826.90;1709437;83;21417;-79
2022/02/15 03:27:26;;;;;;;64.45;30.02;;;;;;;-2.89;77.62;97830.83;1709533;83;21020;-79
2022/02/15 03:29:53;;;;;;;60.90;29.07;;;;;;;-2.89;77.52;97841.20;1709752;83;21051;-79
2022/02/15 03:32:20;;;;;;;63.65;28.75;;;;;;;-2.87;77.57;97831.76;1708443;83;21039;-80
2022/02/15 03:34:47;;;;;;;62.55;29.10;;;;;;;-2.84;77.81;97835.28;1708058;84;21655;-80
2022/02/15 03:37:13;;;;;;;62.50;29.48;;;;;;;-2.81;77.36;97830.17;1708302;83;21079;-80
2022/02/15 03:39:40;;;;;;;61.88;29.32;;;;;;;-2.78;77.41;97831.95;1708090;83;21019;-80
2022/02/15 03:44:54;;;;;;;61.40;27.93;;;;;;;-2.67;77.19;97825.67;1709795;83;21725;-81
2022/02/15 03:47:23;;;;;;;61.95;29.40;;;;;;;-2.65;77.18;97839.13;1709617;83;21476;-80
2022/02/15 03:49:50;;;;;;;60.10;29.37;;;;;;;-2.61;77.01;97836.20;1709077;83;21032;-80
2022/02/15 03:52:16;;;;;;;59.83;28.77;;;;;;;-2.61;76.93;97843.09;1708361;83;21478;-80
2022/02/15 03:54:44;;;;;;;61.58;28.02;;;;;;;-2.63;77.14;97852.13;1708279;83;21406;-80
2022/02/15 03:57:11;;;;;;;61.35;28.42;;;;;;;-2.66;77.12;97846.91;1708360;83;21033;-80
2022/02/15 03:59:38;;;;;;;59.45;27.15;;;;;;;-2.67;76.75;97851.61;1708448;84;20961;-80
2022/02/15 04:02:06;;;;;;;66.25;28.85;;;;;;;-2.69;77.15;97853.31;1707921;83;21020;-80
2022/02/15 04:04:33;;;;;;;61.18;27.35;;;;;;;-2.73;78.30;97860.58;1708138;83;20989;-80
2022/02/15 04:07:00;;;;;;;64.47;29.18;;;;;;;-2.85;78.93;97861.19;1708223;84;21036;-81
2022/02/15 04:09:28;;;;;;;60.00;27.60;;;;;;;-2.92;78.19;97862.77;1709508;84;21365;-80
2022/02/15 04:11:54;;;;;;;62.43;28.32;;;;;;;-2.93;78.02;97859.72;1709801;83;21047;-81
2022/02/15 04:14:22;;;;;;;64.03;29.65;;;;;;;-2.93;77.65;97861.91;1641194;87;21038;-81
2022/02/15 04:16:49;;;;;;;58.33;27.62;;;;;;;-2.96;77.43;97865.72;1681403;85;21040;-81
2022/02/15 04:19:17;;;;;;;66.70;28.38;;;;;;;-3.00;77.51;97861.73;1703124;84;21160;-79
2022/02/15 04:21:44;;;;;;;61.83;29.00;;;;;;;-2.99;77.87;97852.67;1708088;83;20992;-80
2022/02/15 04:24:11;;;;;;;65.50;30.17;;;;;;;-2.99;77.65;97853.97;1708094;83;21040;-79
2022/02/15 04:26:38;;;;;;;65.72;29.77;;;;;;;-2.99;77.97;97851.81;1708101;83;20992;-79
2022/02/15 04:29:05;;;;;;;57.08;29.05;;;;;;;-2.97;77.65;97855.30;1709284;83;21036;-79
2022/02/15 04:31:33;;;;;;;60.23;30.02;;;;;;;-2.96;78.09;97857.94;1709804;83;20999;-80
2022/02/15 04:34:00;;;;;;;60.45;29.10;;;;;;;-2.94;78.03;97861.42;1709768;83;21051;-80
2022/02/15 04:36:27;;;;;;;58.83;28.50;;;;;;;-2.92;78.41;97864.95;1709259;83;20976;-80
2022/02/15 04:38:56;;;;;;;58.40;29.92;;;;;;;-2.84;77.75;97869.41;1708430;83;21001;-78
2022/02/15 04:41:23;;;;;;;64.92;28.55;;;;;;;-2.82;77.87;97868.60;1708162;83;20917;-78
2022/02/15 04:43:51;;;;;;;63.85;30.30;;;;;;;-2.76;77.66;97856.61;1707883;83;21078;-78
2022/02/15 04:46:19;;;;;;;64.55;29.42;;;;;;;-2.73;77.64;97856.27;1707286;84;21019;-77
2022/02/15 04:48:46;;;;;;;63.95;29.82;;;;;;;-2.74;77.44;97859.69;1685698;84;21041;-77
2022/02/15 04:51:14;;;;;;;64.82;30.50;;;;;;;-2.74;77.47;97861.42;1707880;83;21028;-78
2022/02/15 04:53:43;;;;;;;61.10;30.25;;;;;;;-2.76;77.80;97850.12;1707819;83;21028;-78
2022/02/15 04:56:10;;;;;;;63.28;30.15;;;;;;;-2.76;77.75;97851.42;1685819;84;21529;-80
2022/02/15 04:58:37;;;;;;;61.08;29.30;;;;;;;-2.74;77.74;97848.45;1708390;83;21012;-77
2022/02/15 05:01:05;;;;;;;61.10;29.95;;;;;;;-2.75;77.85;97851.90;1708248;83;20981;-78
2022/02/15 05:03:34;;;;;;;61.20;30.43;;;;;;;-2.80;79.00;97855.67;1700610;84;21132;-78
2022/02/15 05:06:01;;;;;;;64.55;30.77;;;;;;;-2.77;78.35;97857.05;1708385;83;21020;-78
2022/02/15 05:08:29;;;;;;;63.60;30.68;;;;;;;-2.78;77.99;97854.00;1709768;84;21007;-79
2022/02/15 05:10:57;;;;;;;57.83;30.00;;;;;;;-2.80;78.00;97865.64;1709994;83;21028;-79
2022/02/15 05:13:26;;;;;;;59.23;29.98;;;;;;;-2.80;78.27;97861.75;1708661;83;21024;-79
2022/02/15 05:15:54;;;;;;;63.20;30.10;;;;;;;-2.78;78.10;97869.56;1706446;82;21059;-79
2022/02/15 05:18:29;;;;;;;58.00;30.05;;;;;;;-2.81;77.92;97863.89;1709079;84;21064;-79
2022/02/15 05:21:02;;;;;;;64.75;30.17;;;;;;;-2.81;77.73;97860.00;1709797;83;20996;-79
2022/02/15 05:23:31;;;;;;;68.47;32.17;;;;;;;-2.83;77.62;97856.48;1709745;84;21012;-79
2022/02/15 05:25:58;;;;;;;74.32;34.40;;;;;;;-2.84;77.67;97859.92;1709426;84;21063;-79
2022/02/15 05:28:29;;;;;;;66.53;32.05;;;;;;;-2.81;78.06;97861.71;1706142;84;21360;-79
2022/02/15 05:30:56;;;;;;;76.05;32.50;;;;;;;-2.77;78.02;97870.42;1709891;83;21422;-80
2022/02/15 05:33:26;;;;;;;70.37;32.40;;;;;;;-2.72;77.95;97874.87;1710010;83;21020;-80
2022/02/15 05:35:53;;;;;;;65.32;32.48;;;;;;;-2.65;78.33;97876.75;1708634;84;21402;-80
2022/02/15 05:38:20;;;;;;;68.12;33.80;;;;;;;-2.62;77.71;97876.38;1685159;84;21036;-79
2022/02/15 05:40:48;;;;;;;69.37;32.05;;;;;;;-2.58;78.47;97875.16;1709287;84;21052;-79
2022/02/15 05:43:18;;;;;;;66.53;33.45;;;;;;;-2.53;78.12;97872.68;1708352;83;21036;-79
2022/02/15 05:45:46;;;;;;;69.87;34.78;;;;;;;-2.48;78.01;97875.35;1709625;84;21137;-79
2022/02/15 05:48:15;;;;;;;66.80;33.20;;;;;;;-2.41;77.80;97879.84;1700772;83;21025;-78
2022/02/15 05:50:49;;;;;;;73.42;33.15;;;;;;;-2.34;77.94;97875.63;1709883;83;21024;-79
2022/02/15 05:53:27;;;;;;;76.15;36.23;;;;;;;-2.29;78.12;97882.67;1709634;83;21012;-79
2022/02/15 05:55:58;;;;;;;72.55;33.38;;;;;;;-2.26;78.57;97884.03;1707974;84;21021;-79
2022/02/15 05:58:29;;;;;;;67.17;33.25;;;;;;;-2.22;77.97;97878.88;1700516;84;21029;-78
2022/02/15 06:01:01;;;;;;;62.62;30.65;;;;;;;-2.17;77.89;97878.55;1709780;83;21039;-78
2022/02/15 06:06:15;;;;;;;63.20;28.12;;;;;;;-2.16;77.61;97878.59;1720568;82;21132;-77
2022/02/15 06:08:41;;;;;;;63.92;30.27;;;;;;;-2.24;78.11;97888.38;1720998;82;20980;-78
2022/02/15 06:11:08;;;;;;;62.08;27.27;;;;;;;-2.25;77.84;97890.09;1721111;82;20992;-79
2022/02/15 06:13:36;;;;;;;59.65;27.22;;;;;;;-2.23;78.10;97884.93;1692786;84;21048;-78
2022/02/15 06:16:05;;;;;;;58.80;27.62;;;;;;;-2.21;77.92;97888.01;1692624;84;21075;-79
2022/02/15 06:18:33;;;;;;;56.45;29.55;;;;;;;-2.15;77.73;97884.66;1732797;82;20984;-79
2022/02/15 06:21:02;;;;;;;58.83;28.85;;;;;;;-2.15;78.28;97887.27;1721259;83;21477;-78
2022/02/15 06:23:29;;;;;;;64.87;31.40;;;;;;;-2.11;78.25;97883.88;1719639;83;20969;-78
2022/02/15 06:26:03;;;;;;;58.85;29.57;;;;;;;-2.04;78.44;97882.28;1720450;82;21020;-79
2022/02/15 06:28:32;;;;;;;60.98;29.20;;;;;;;-2.01;77.94;97881.91;1722691;82;20968;-79
2022/02/15 06:31:00;;;;;;;60.83;30.30;;;;;;;-1.98;78.09;97886.28;1730987;82;21032;-79
2022/02/15 06:33:29;;;;;;;63.25;29.10;;;;;;;-1.95;77.65;97881.13;1719725;83;21041;-80
2022/02/15 06:35:56;;;;;;;65.47;30.30;;;;;;;-1.89;77.83;97884.27;1719350;83;21016;-79
2022/02/15 06:38:23;;;;;;;68.15;31.05;;;;;;;-1.82;77.81;97891.76;1716299;82;20980;-80
2022/02/15 06:40:57;;;;;;;;;;;;;;;-1.75;77.76;97881.91;1707297;82;20964;-80
2022/02/15 06:43:28;;;;;;;59.77;29.75;;;;;;;-1.69;77.40;97879.86;1718647;83;20087;-79
2022/02/15 06:45:54;;;;;;;60.30;30.70;;;;;;;-1.63;77.31;97874.76;1719892;83;21568;-79
2022/02/15 06:48:23;;;;;;;65.00;31.00;;;;;;;-1.57;77.40;97869.69;1719715;83;21032;-78
2022/02/15 06:50:50;;;;;;;67.27;31.20;;;;;;;-1.51;77.57;97873.68;1727271;82;22269;-80
2022/02/15 06:53:19;;;;;;;66.20;31.30;;;;;;;-1.47;77.31;97876.78;1713056;82;21064;-81
2022/02/15 06:55:47;;;;;;;63.00;31.07;;;;;;;-1.42;77.14;97874.69;1704523;83;21174;-80
2022/02/15 06:58:14;;;;;;;59.35;28.40;;;;;;;-1.40;77.32;97874.28;1720146;82;21035;-82
2022/02/15 07:00:41;;;;;;;62.15;29.82;;;;;;;-1.40;76.88;97878.18;1723084;82;20992;-80
2022/02/15 07:03:07;;;;;;;68.57;32.70;;;;;;;-1.39;76.79;97867.81;1715293;82;21079;-84
2022/02/15 07:05:34;;;;;;;60.08;30.45;;;;;;;-1.29;76.90;97865.36;1708224;83;21095;-82
2022/02/15 07:08:03;;;;;;;59.70;31.15;;;;;;;-1.17;77.00;97868.13;1708396;84;21015;-80
2022/02/15 07:10:31;;;;;;;66.67;30.72;;;;;;;-1.09;76.67;97869.55;1708831;83;21067;-78
2022/02/15 07:13:00;;;;;;;63.08;30.85;;;;;;;-1.01;76.46;97869.25;1708488;83;21375;-80
2022/02/15 07:15:31;;;;;;;60.63;29.72;;;;;;;-0.95;76.27;97864.12;1708493;83;21056;-80
2022/02/15 07:18:05;;;;;;;;;;;;;;;-0.84;76.20;97871.20;1700032;84;21068;-80
2022/02/15 07:20:43;;;;;;;62.62;31.35;;;;;;;-0.80;75.60;97869.09;1707024;84;20336;-80
2022/02/15 07:23:28;;;;;;;56.77;28.90;;;;;;;-0.72;75.80;97870.50;1709745;84;20984;-80
2022/02/15 07:26:05;;;;;;;59.67;30.20;;;;;;;-0.62;75.76;97866.30;1682610;85;21096;-79
2022/02/15 07:28:50;;;;;;;66.30;30.30;;;;;;;-0.57;75.31;97859.02;1709247;84;21012;-79
2022/02/15 07:31:17;;;;;;;65.03;32.60;;;;;;;-0.51;75.58;97859.95;1709582;83;21070;-78
2022/02/15 07:33:44;;;;;;;60.25;30.68;;;;;;;-0.44;75.44;97862.64;1709685;83;20997;-79
2022/02/15 07:36:11;;;;;;;58.50;29.98;;;;;;;-0.39;75.20;97879.61;1709870;83;21012;-79
2022/02/15 07:38:37;;;;;;;58.80;30.20;;;;;;;-0.53;75.49;97887.25;1709773;83;21001;-79
2022/02/15 07:41:05;;;;;;;59.42;31.35;;;;;;;-0.46;75.21;97879.95;1705758;84;21001;-79
2022/02/15 07:43:32;;;;;;;61.08;28.42;;;;;;;-0.39;75.36;97877.00;1709620;83;20985;-80
2022/02/15 07:46:06;;;;;;;55.30;28.52;;;;;;;-0.25;75.36;97868.04;1709381;83;21012;-79
2022/02/15 07:48:34;;;;;;;53.58;27.62;;;;;;;-0.10;75.23;97868.66;1709844;83;21396;-78
2022/02/15 07:51:01;;;;;;;54.90;26.57;;;;;;;0.00;75.14;97864.44;1709684;83;20972;-78
2022/02/15 07:53:29;;;;;;;58.50;28.95;;;;;;;0.11;75.08;97855.41;1709549;83;21010;-78
2022/02/15 07:55:56;;;;;;;62.00;29.00;;;;;;;0.21;74.08;97858.98;1709967;83;20961;-81
2022/02/15 07:58:22;;;;;;;59.10;27.37;;;;;;;0.31;74.45;97861.23;1709786;83;22194;-79
2022/02/15 08:00:49;;;;;;;57.35;28.67;;;;;;;0.42;74.50;97860.04;1709585;83;21000;-78
2022/02/15 08:03:16;;;;;;;58.20;28.38;;;;;;;0.56;74.40;97858.43;1709789;82;21092;-78
2022/02/15 08:05:43;;;;;;;55.12;28.10;;;;;;;0.70;73.99;97868.96;1709793;83;21024;-79
2022/02/15 08:08:11;;;;;;;54.35;28.15;;;;;;;0.85;73.94;97870.83;1707928;83;21502;-79
2022/02/15 08:10:38;;;;;;;56.10;27.62;;;;;;;0.98;73.48;97866.98;1709167;83;21032;-78
2022/02/15 08:13:07;;;;;;;57.58;28.45;;;;;;;1.06;72.99;97870.53;1705957;84;21053;-78
2022/02/15 08:15:41;;;;;;;49.93;27.02;;;;;;;1.11;71.43;97877.06;1709636;84;20970;-78
2022/02/15 08:18:07;;;;;;;;;;;;;;;1.09;71.87;97882.30;1709063;84;21048;-78
2022/02/15 08:20:36;;;;;;;50.60;27.13;;;;;;;1.09;72.37;97881.00;1709263;84;20328;-78
2022/02/15 08:23:03;;;;;;;53.95;26.85;;;;;;;1.14;72.30;97884.51;1709455;83;21013;-77
2022/02/15 08:25:30;;;;;;;53.13;27.20;;;;;;;1.21;71.56;97883.23;1709367;84;20992;-78
2022/02/15 08:27:58;;;;;;;61.02;30.23;;;;;;;1.24;72.00;97881.96;1709568;84;20945;-78
2022/02/15 08:30:26;;;;;;;53.48;28.10;;;;;;;1.27;71.84;97893.29;1705615;84;20985;-79
2022/02/15 08:32:54;;;;;;;57.13;28.87;;;;;;;1.17;70.99;97894.09;1709511;84;20952;-78
2022/02/15 08:35:21;;;;;;;55.40;26.90;;;;;;;1.10;71.19;97904.04;1709499;83;21537;-78
2022/02/15 08:37:50;;;;;;;58.85;27.65;;;;;;;1.11;71.33;97907.09;1709627;83;20993;-78
2022/02/15 08:40:18;;;;;;;62.98;29.02;;;;;;;1.15;71.49;97903.64;1709617;84;21397;-78
2022/02/15 08:42:46;;;;;;;50.28;25.97;;;;;;;1.17;71.59;97906.70;1709529;83;21449;-78
2022/02/15 08:45:13;;;;;;;52.10;25.90;;;;;;;1.24;71.76;97904.16;1709650;83;20989;-78
2022/02/15 08:47:40;;;;;;;56.05;26.02;;;;;;;1.28;71.95;97908.08;1709706;83;21008;-78
2022/02/15 08:50:08;;;;;;;51.10;25.90;;;;;;;1.31;72.33;97905.50;1705925;84;20980;-78
2022/02/15 08:52:37;;;;;;;55.23;26.07;;;;;;;1.36;72.50;97904.21;1709369;83;20972;-76
2022/02/15 08:55:09;;;;;;;55.17;28.65;;;;;;;1.32;73.16;97906.36;1709412;84;21027;-76
2022/02/15 08:57:36;;;;;;;58.58;29.30;;;;;;;1.34;75.02;97908.98;1709395;83;20996;-76
2022/02/15 09:00:10;;;;;;;58.80;29.42;;;;;;;1.32;73.35;97903.74;1709561;83;21469;-78
2022/02/15 09:02:37;;;;;;;66.07;31.80;;;;;;;1.33;73.29;97901.60;1708028;83;21020;-79
2022/02/15 09:05:23;;;;;;;56.70;30.62;;;;;;;1.32;73.55;97892.00;1708164;83;21016;-78
2022/02/15 09:08:06;;;;;;;64.07;31.27;;;;;;;1.30;74.14;97900.27;1708788;84;21414;-81
2022/02/15 09:10:39;;;;;;;65.52;32.38;;;;;;;1.30;73.49;97896.34;1658000;86;21028;-78
2022/02/15 09:13:08;;;;;;;63.70;31.73;;;;;;;1.33;73.51;97886.35;1698864;84;20992;-79
2022/02/15 09:15:35;;;;;;;63.95;30.97;;;;;;;1.38;73.74;97879.00;1709719;84;20958;-79
2022/02/15 09:18:01;;;;;;;63.30;31.80;;;;;;;1.50;75.18;97882.08;1709321;83;21032;-79
2022/02/15 09:20:28;;;;;;;62.55;29.75;;;;;;;1.61;74.74;97880.83;1709428;83;20960;-78
2022/02/15 09:22:55;;;;;;;53.20;28.55;;;;;;;1.73;74.53;97866.09;1709450;84;21079;-78
2022/02/15 09:25:22;;;;;;;55.85;28.67;;;;;;;1.81;74.73;97871.78;1709480;84;21398;-80
2022/02/15 09:27:49;;;;;;;57.20;28.32;;;;;;;1.93;74.81;97873.98;1709523;83;20998;-78
2022/02/15 09:30:16;;;;;;;60.52;29.77;;;;;;;2.01;75.27;97871.39;1709332;84;21518;-78
2022/02/15 09:32:43;;;;;;;56.58;28.40;;;;;;;2.06;75.04;97873.58;1705439;84;21095;-78
2022/02/15 09:35:10;;;;;;;52.98;28.15;;;;;;;2.13;74.95;97870.55;1709650;84;21443;-79
2022/02/15 09:37:37;;;;;;;52.75;27.35;;;;;;;2.15;75.50;97870.99;1709688;83;21056;-80
2022/02/15 09:40:07;;;;;;;50.23;26.17;;;;;;;2.14;75.15;97865.75;1705777;84;21407;-78
2022/02/15 09:42:36;;;;;;;53.80;26.82;;;;;;;2.13;74.84;97864.90;1708961;84;20988;-78
2022/02/15 09:45:10;;;;;;;51.92;24.95;;;;;;;2.17;76.33;97865.77;1705693;84;20988;-80
2022/02/15 09:47:41;;;;;;;52.03;26.73;;;;;;;2.21;75.67;97863.61;1709766;84;20981;-78
2022/02/15 09:50:09;;;;;;;46.13;23.50;;;;;;;2.23;75.55;97873.20;1706527;84;21033;-78
2022/02/15 09:52:45;;;;;;;51.02;25.52;;;;;;;2.30;76.50;97871.47;1709387;83;21077;-78
2022/02/15 09:55:08;;;;;;;47.20;24.47;;;;;;;2.49;75.44;97871.50;1705702;84;20984;-78
2022/02/15 09:57:35;;;;;;;51.33;26.15;;;;;;;2.67;74.49;97865.81;1709574;83;21522;-79
2022/02/15 10:00:02;;;;;;;47.30;24.90;;;;;;;2.73;73.98;97869.31;1709542;83;20976;-79
2022/02/15 10:02:34;;;;;;;51.23;25.95;;;;;;;2.80;73.91;97862.76;1709187;83;21391;-80
2022/02/15 10:04:58;;;;;;;51.75;26.45;;;;;;;2.92;73.55;97862.77;1709625;83;21466;-79
2022/02/15 10:07:25;;;;;;;47.13;26.45;;;;;;;2.95;72.92;97862.73;1709431;84;21122;-79
2022/02/15 10:09:56;;;;;;;49.33;25.57;;;;;;;2.99;72.95;97868.41;1709216;83;21438;-78
2022/02/15 10:12:24;;;;;;;49.85;26.48;;;;;;;3.09;73.00;97859.23;1705978;84;20988;-78
2022/02/15 10:14:55;;;;;;;49.88;25.97;;;;;;;3.28;72.47;97858.78;1709685;83;21009;-79
2022/02/15 10:17:24;;;;;;;47.50;26.12;;;;;;;3.34;71.98;97850.02;1705848;84;20996;-78
2022/02/15 10:19:55;;;;;;;45.55;25.08;;;;;;;3.39;71.87;97836.03;1709677;83;21516;-79
2022/02/15 10:22:22;;;;;;;45.48;26.55;;;;;;;3.47;71.91;97837.74;1709678;84;20985;-80
2022/02/15 10:24:58;;;;;;;48.48;25.43;;;;;;;3.58;72.06;97833.78;1709932;83;20973;-80
2022/02/15 10:27:31;;;;;;;51.85;27.02;;;;;;;3.68;71.71;97827.62;1709714;83;20943;-80
2022/02/15 10:30:03;;;;;;;48.05;26.77;;;;;;;3.80;71.55;97819.71;1709774;83;20988;-79
2022/02/15 10:32:30;;;;;;;50.12;28.85;;;;;;;3.90;70.97;97814.42;1706417;84;21499;-80
2022/02/15 10:35:00;;;;;;;47.00;25.88;;;;;;;4.06;71.25;97817.38;1709786;83;20966;-79
2022/02/15 10:37:36;;;;;;;50.52;25.88;;;;;;;4.25;69.59;97813.75;1709835;84;21466;-80
2022/02/15 10:40:06;;;;;;;45.55;25.95;;;;;;;4.53;69.75;97805.67;1709110;83;21047;-81
2022/02/15 10:42:36;;;;;;;52.03;28.42;;;;;;;4.81;68.61;97801.04;1709667;83;21039;-79
2022/02/15 10:45:10;;;;;;;50.50;28.20;;;;;;;5.04;68.54;97796.02;1709841;83;21379;-80
2022/02/15 10:47:45;;;;;;;50.03;28.38;;;;;;;5.21;68.30;97792.31;1709698;83;20976;-79
2022/02/15 10:50:15;;;;;;;49.13;27.90;;;;;;;5.41;68.59;97787.69;1708490;84;20985;-79
2022/02/15 10:52:46;;;;;;;50.58;27.93;;;;;;;5.53;67.89;97787.98;1709648;84;21025;-79
2022/02/15 10:55:12;;;;;;;48.02;27.90;;;;;;;5.61;67.76;97781.31;1709709;83;21009;-79
2022/02/15 10:57:41;;;;;;;48.40;27.85;;;;;;;5.73;65.83;97776.80;1709817;83;20962;-80
2022/02/15 11:00:11;;;;;;;54.05;29.77;;;;;;;5.76;65.25;97780.69;1708780;84;20952;-79
2022/02/15 11:02:43;;;;;;;50.20;28.87;;;;;;;5.71;64.68;97796.97;1704732;84;21035;-79
2022/02/15 11:05:14;;;;;;;48.20;27.40;;;;;;;5.71;65.31;97800.48;1719171;82;20968;-79
2022/02/15 11:07:43;;;;;;;49.77;27.50;;;;;;;5.71;64.96;97792.59;1720917;83;21016;-79
2022/02/15 11:10:25;;;;;;;48.92;26.85;;;;;;;5.66;64.62;97787.84;1721151;83;21007;-79
2022/02/15 11:12:59;;;;;;;47.48;26.77;;;;;;;5.70;65.72;97800.50;1725969;82;21382;-80
2022/02/15 11:15:33;;;;;;;44.67;26.07;;;;;;;5.62;64.25;97789.66;1722160;82;21500;-80
2022/02/15 11:18:05;;;;;;;48.58;27.70;;;;;;;5.61;64.50;97790.98;1723881;82;20945;-80
2022/02/15 11:21:00;;;;;;;49.80;28.10;;;;;;;5.62;64.79;97777.82;1728400;82;20956;-80
2022/02/15 11:23:30;;;;;;;48.95;28.45;;;;;;;5.67;64.55;97779.06;1725087;82;20966;-80
2022/02/15 11:26:17;;;;;;;62.33;27.60;;;;;;;5.82;64.72;97778.00;1730767;82;21392;-80
2022/02/15 11:28:50;;;;;;;45.83;26.20;;;;;;;6.05;65.38;97772.86;1726757;82;20952;-79
2022/02/15 11:31:32;;;;;;;51.98;28.27;;;;;;;6.45;64.71;97774.86;1728796;82;21003;-79
2022/02/15 11:34:07;;;;;;;85.22;30.02;;;;;;;6.66;63.43;97769.27;1727686;82;21109;-80
2022/02/15 11:36:50;;;;;;;50.88;28.00;;;;;;;6.92;63.75;97776.70;1728819;82;20973;-79
2022/02/15 11:39:23;;;;;;;48.95;28.52;;;;;;;7.15;63.43;97775.42;1730361;82;21421;-79